createdAt,value
2018-11-10T00:01:44.517Z,33.30
2018-11-10T00:04:12.917Z,34.57
2018-11-10T00:06:41.199Z,35.87
2018-11-10T00:09:09.744Z,33.33
2018-11-10T00:11:38.017Z,33.37
2018-11-10T00:14:06.434Z,35.40
2018-11-10T00:16:35.144Z,35.03
2018-11-10T00:19:03.398Z,35.67
2018-11-10T00:21:31.931Z,33.93
2018-11-10T00:24:00.214Z,34.13
2018-11-10T00:26:28.548Z,34.90
2018-11-10T00:28:57.251Z,34.70
2018-11-10T00:31:25.698Z,34.50
2018-11-10T00:33:53.995Z,34.57
2018-11-10T00:36:22.290Z,36.30
2018-11-10T00:38:50.765Z,36.00
2018-11-10T00:41:19.110Z,34.30
2018-11-10T00:43:47.417Z,33.70
2018-11-10T00:46:15.741Z,34.00
2018-11-10T00:48:44.036Z,34.27
2018-11-10T00:51:12.325Z,35.50
2018-11-10T00:53:40.643Z,34.83
2018-11-10T00:56:08.960Z,34.27
2018-11-10T00:58:37.238Z,33.70
2018-11-10T01:01:05.543Z,33.60
2018-11-10T01:03:33.818Z,34.90
2018-11-10T01:06:02.117Z,34.97
2018-11-10T01:08:30.398Z,33.60
2018-11-10T01:10:58.688Z,34.97
2018-11-10T01:13:26.955Z,34.17
2018-11-10T01:15:55.229Z,34.40
2018-11-10T01:18:23.497Z,34.73
2018-11-10T01:20:51.797Z,32.33
2018-11-10T01:23:20.169Z,34.00
2018-11-10T01:25:48.460Z,34.23
2018-11-10T01:28:16.767Z,33.67
2018-11-10T01:30:45.064Z,33.57
2018-11-10T01:33:13.357Z,34.23
2018-11-10T01:35:41.718Z,34.10
2018-11-10T01:38:10.079Z,33.83
2018-11-10T01:40:38.377Z,33.50
2018-11-10T01:43:06.716Z,33.03
2018-11-10T01:45:35.106Z,30.67
2018-11-10T01:48:03.376Z,32.53
2018-11-10T01:50:31.671Z,32.33
2018-11-10T01:52:59.942Z,32.67
2018-11-10T01:55:28.246Z,32.40
2018-11-10T01:57:56.543Z,30.37
2018-11-10T02:00:24.877Z,32.70
2018-11-10T02:02:53.157Z,32.80
2018-11-10T02:05:21.454Z,32.87
2018-11-10T02:07:49.736Z,35.07
2018-11-10T02:10:18.073Z,31.97
2018-11-10T02:12:46.363Z,32.00
2018-11-10T02:15:15.756Z,32.90
2018-11-10T02:17:44.075Z,33.43
2018-11-10T02:20:13.591Z,32.13
2018-11-10T02:22:42.187Z,33.17
2018-11-10T02:25:11.479Z,33.77
2018-11-10T02:27:40.283Z,33.80
2018-11-10T02:30:09.819Z,31.87
2018-11-10T02:32:38.129Z,32.37
2018-11-10T02:35:07.423Z,30.90
2018-11-10T02:37:36.151Z,32.03
2018-11-10T02:40:04.699Z,32.80
2018-11-10T02:42:33.043Z,31.70
2018-11-10T02:45:01.318Z,31.90
2018-11-10T02:47:29.630Z,31.77
2018-11-10T02:49:57.935Z,32.13
2018-11-10T02:52:26.227Z,30.87
2018-11-10T02:54:54.498Z,31.17
2018-11-10T02:57:22.783Z,32.53
2018-11-10T02:59:51.066Z,31.57
2018-11-10T03:02:19.398Z,30.00
2018-11-10T03:04:47.675Z,32.53
2018-11-10T03:07:15.989Z,31.87
2018-11-10T03:09:44.307Z,30.97
2018-11-10T03:12:12.612Z,30.73
2018-11-10T03:14:40.947Z,30.90
2018-11-10T03:17:09.246Z,31.10
2018-11-10T03:19:37.579Z,30.73
2018-11-10T03:22:05.861Z,31.23
2018-11-10T03:24:34.127Z,30.67
2018-11-10T03:27:02.440Z,30.40
2018-11-10T03:29:30.738Z,32.10
2018-11-10T03:31:59.068Z,29.70
2018-11-10T03:34:27.441Z,31.73
2018-11-10T03:36:55.853Z,30.87
2018-11-10T03:39:24.137Z,33.90
2018-11-10T03:41:52.451Z,30.27
2018-11-10T03:44:20.737Z,31.50
2018-11-10T03:46:49.037Z,30.73
2018-11-10T03:49:17.320Z,32.03
2018-11-10T03:51:45.670Z,29.97
2018-11-10T03:54:13.935Z,30.57
2018-11-10T03:56:42.258Z,29.40
2018-11-10T03:59:10.531Z,28.73
2018-11-10T04:01:38.904Z,29.57
2018-11-10T04:04:07.197Z,29.40
2018-11-10T04:06:35.485Z,29.63
2018-11-10T04:09:04.410Z,31.10
2018-11-10T04:11:32.693Z,30.30
2018-11-10T04:14:00.989Z,30.83
2018-11-10T04:16:29.295Z,28.03
2018-11-10T04:18:57.623Z,28.93
2018-11-10T04:21:25.919Z,31.23
2018-11-10T04:23:54.254Z,30.60
2018-11-10T04:26:22.544Z,30.97
2018-11-10T04:28:51.135Z,29.80
2018-11-10T04:31:19.737Z,29.87
2018-11-10T04:36:28.262Z,30.37
2018-11-10T04:38:56.806Z,29.83
2018-11-10T04:41:25.176Z,29.90
2018-11-10T04:43:53.550Z,29.97
2018-11-10T04:46:21.960Z,30.00
2018-11-10T04:48:50.361Z,28.43
2018-11-10T04:51:18.689Z,27.50
2018-11-10T04:53:47.076Z,29.17
2018-11-10T04:56:15.448Z,28.33
2018-11-10T04:58:43.845Z,29.03
2018-11-10T05:01:12.270Z,28.60
2018-11-10T05:03:40.646Z,28.87
2018-11-10T05:06:08.960Z,29.27
2018-11-10T05:08:37.369Z,29.23
2018-11-10T05:11:05.995Z,31.10
2018-11-10T05:13:34.339Z,28.53
2018-11-10T05:16:02.712Z,28.47
2018-11-10T05:18:31.097Z,28.43
2018-11-10T05:20:59.533Z,27.90
2018-11-10T05:23:28.233Z,28.07
2018-11-10T05:25:56.590Z,28.00
2018-11-10T05:28:24.944Z,27.33
2018-11-10T05:30:53.366Z,27.10
2018-11-10T05:33:21.729Z,27.83
2018-11-10T05:35:50.089Z,27.33
2018-11-10T05:38:18.519Z,26.93
2018-11-10T05:40:46.902Z,26.40
2018-11-10T05:43:15.319Z,26.43
2018-11-10T05:45:43.813Z,26.07
2018-11-10T05:48:12.122Z,25.17
2018-11-10T05:50:40.498Z,27.17
2018-11-10T05:53:08.848Z,25.43
2018-11-10T05:55:37.455Z,26.90
2018-11-10T05:58:05.839Z,25.37
2018-11-10T06:00:34.458Z,26.90
2018-11-10T06:03:02.861Z,25.87
2018-11-10T06:05:31.327Z,26.43
2018-11-10T06:07:59.715Z,25.47
2018-11-10T06:10:28.288Z,25.77
2018-11-10T06:12:56.635Z,26.03
2018-11-10T06:15:25.059Z,24.40
2018-11-10T06:17:53.376Z,24.70
2018-11-10T06:20:21.769Z,28.13
2018-11-10T06:22:50.239Z,24.87
2018-11-10T06:25:18.683Z,27.40
2018-11-10T06:27:53.691Z,26.00
2018-11-10T06:30:22.025Z,25.47
2018-11-10T06:32:50.370Z,24.47
2018-11-10T06:35:18.806Z,23.83
2018-11-10T06:37:47.134Z,26.57
2018-11-10T06:40:15.603Z,26.30
2018-11-10T06:42:44.408Z,24.67
2018-11-10T06:45:12.915Z,24.23
2018-11-10T06:47:41.372Z,25.00
2018-11-10T06:50:10.972Z,24.27
2018-11-10T06:52:39.404Z,24.03
2018-11-10T06:55:09.045Z,24.13
2018-11-10T06:57:37.429Z,22.67
2018-11-10T07:00:08.480Z,22.37
2018-11-10T07:02:36.922Z,23.67
2018-11-10T07:05:06.065Z,22.27
2018-11-10T07:07:35.753Z,23.33
2018-11-10T07:10:04.437Z,24.40
2018-11-10T07:12:32.803Z,23.03
2018-11-10T07:15:01.170Z,24.40
2018-11-10T07:17:29.792Z,24.40
2018-11-10T07:19:58.099Z,23.80
2018-11-10T07:22:26.443Z,22.80
2018-11-10T07:24:54.832Z,22.30
2018-11-10T07:27:23.167Z,23.53
2018-11-10T07:29:51.518Z,24.10
2018-11-10T07:32:19.961Z,24.07
2018-11-10T07:34:48.284Z,24.77
2018-11-10T07:37:16.670Z,23.40
2018-11-10T07:42:19.671Z,23.13
2018-11-10T07:44:49.131Z,22.57
2018-11-10T07:47:17.963Z,22.93
2018-11-10T07:49:46.343Z,24.73
2018-11-10T07:52:14.755Z,24.13
2018-11-10T07:54:43.070Z,23.93
2018-11-10T07:57:11.505Z,25.00
2018-11-10T07:59:39.862Z,24.47
2018-11-10T08:02:08.905Z,25.13
2018-11-10T08:04:37.497Z,23.07
2018-11-10T08:07:05.847Z,25.37
2018-11-10T08:09:34.280Z,24.50
2018-11-10T08:12:03.801Z,25.20
2018-11-10T08:14:32.142Z,23.57
2018-11-10T08:17:00.590Z,28.92
2018-11-10T08:19:28.946Z,25.60
2018-11-10T08:21:57.327Z,24.20
2018-11-10T08:24:25.664Z,23.90
2018-11-10T08:26:54.046Z,24.57
2018-11-10T08:29:22.427Z,25.93
2018-11-10T08:31:50.869Z,24.90
2018-11-10T08:34:19.260Z,25.23
2018-11-10T08:36:47.648Z,25.60
2018-11-10T08:39:16.045Z,24.20
2018-11-10T08:41:44.474Z,25.80
2018-11-10T08:44:12.880Z,25.23
2018-11-10T08:46:41.213Z,25.60
2018-11-10T08:49:09.663Z,25.63
2018-11-10T08:51:38.058Z,26.73
2018-11-10T08:54:06.603Z,25.50
2018-11-10T08:56:34.997Z,27.13
2018-11-10T08:59:03.432Z,26.63
2018-11-10T09:01:31.802Z,27.27
2018-11-10T09:04:00.098Z,27.67
2018-11-10T09:06:28.825Z,27.50
2018-11-10T09:08:59.039Z,27.87
2018-11-10T09:11:27.458Z,27.13
2018-11-10T09:13:55.902Z,29.03
2018-11-10T09:16:25.231Z,28.67
2018-11-10T09:18:53.670Z,27.47
2018-11-10T09:21:22.075Z,27.93
2018-11-10T09:23:50.485Z,28.63
2018-11-10T09:26:18.899Z,29.00
2018-11-10T09:28:47.256Z,29.27
2018-11-10T09:31:15.655Z,29.13
2018-11-10T09:33:44.088Z,28.90
2018-11-10T09:36:12.728Z,29.83
2018-11-10T09:38:41.192Z,29.13
2018-11-10T09:41:18.095Z,26.70
2018-11-10T09:43:51.396Z,28.57
2018-11-10T09:46:19.806Z,27.13
2018-11-10T09:48:48.175Z,28.60
2018-11-10T09:51:16.577Z,27.20
2018-11-10T09:53:45.124Z,27.83
2018-11-10T09:56:13.528Z,27.53
2018-11-10T09:58:42.062Z,27.67
2018-11-10T10:01:10.567Z,28.03
2018-11-10T10:03:38.914Z,28.63
2018-11-10T10:06:07.338Z,28.10
2018-11-10T10:08:35.856Z,27.30
2018-11-10T10:11:04.415Z,28.67
2018-11-10T10:13:33.090Z,29.33
2018-11-10T10:16:01.577Z,27.20
2018-11-10T10:18:29.882Z,28.03
2018-11-10T10:20:58.400Z,26.60
2018-11-10T10:23:26.969Z,28.33
2018-11-10T10:25:55.348Z,25.30
2018-11-10T10:28:23.905Z,24.67
2018-11-10T10:30:52.268Z,26.60
2018-11-10T10:33:20.741Z,28.23
2018-11-10T10:35:49.181Z,26.17
2018-11-10T10:38:17.573Z,26.43
2018-11-10T10:40:45.979Z,24.77
2018-11-10T10:43:14.433Z,26.13
2018-11-10T10:45:42.826Z,25.30
2018-11-10T10:48:11.217Z,26.70
2018-11-10T10:50:39.621Z,26.43
2018-11-10T10:53:08.017Z,24.40
2018-11-10T10:55:36.419Z,26.57
2018-11-10T10:58:04.907Z,26.47
2018-11-10T11:00:38.658Z,25.60
2018-11-10T11:03:12.586Z,26.07
2018-11-10T11:05:42.885Z,27.03
2018-11-10T11:08:11.383Z,25.97
2018-11-10T11:10:39.685Z,26.10
2018-11-10T11:13:08.072Z,25.50
2018-11-10T11:15:36.574Z,27.30
2018-11-10T11:18:05.073Z,25.20
2018-11-10T11:20:33.484Z,26.07
2018-11-10T11:23:01.800Z,24.67
2018-11-10T11:25:30.105Z,25.03
2018-11-10T11:27:58.391Z,25.27
2018-11-10T11:30:26.739Z,25.27
2018-11-10T11:32:55.027Z,23.13
2018-11-10T11:35:23.363Z,24.40
2018-11-10T11:37:51.648Z,25.62
2018-11-10T11:40:20.022Z,24.70
2018-11-10T11:42:48.375Z,24.37
2018-11-10T11:45:16.704Z,25.03
2018-11-10T11:47:44.980Z,24.43
2018-11-10T11:50:14.577Z,23.13
2018-11-10T11:52:43.615Z,25.17
2018-11-10T11:55:12.545Z,23.93
2018-11-10T11:57:41.161Z,22.50
2018-11-10T12:00:12.662Z,22.03
2018-11-10T12:02:41.723Z,21.27
2018-11-10T12:05:11.179Z,23.53
2018-11-10T12:07:39.515Z,22.47
2018-11-10T12:10:08.938Z,21.17
2018-11-10T12:12:37.237Z,22.33
2018-11-10T12:15:06.269Z,21.00
2018-11-10T12:17:34.577Z,21.07
2018-11-10T12:20:02.885Z,21.40
2018-11-10T12:22:31.183Z,19.27
2018-11-10T12:24:59.505Z,20.73
2018-11-10T12:27:28.015Z,19.40
2018-11-10T12:29:56.330Z,19.83
2018-11-10T12:32:24.647Z,20.67
2018-11-10T12:34:52.994Z,20.97
2018-11-10T12:37:21.286Z,19.73
2018-11-10T12:39:49.627Z,20.83
2018-11-10T12:42:17.964Z,20.40
2018-11-10T12:44:46.555Z,20.08
2018-11-10T12:47:14.893Z,20.43
2018-11-10T12:49:43.234Z,20.37
2018-11-10T12:52:12.154Z,19.67
2018-11-10T12:54:40.498Z,21.10
2018-11-10T12:57:08.775Z,20.50
2018-11-10T12:59:37.090Z,20.77
2018-11-10T13:02:05.510Z,21.70
2018-11-10T13:04:33.802Z,20.33
2018-11-10T13:07:02.110Z,21.27
2018-11-10T13:09:30.403Z,21.93
2018-11-10T13:11:58.816Z,21.27
2018-11-10T13:14:27.132Z,20.90
2018-11-10T13:16:55.472Z,21.37
2018-11-10T13:19:23.773Z,21.87
2018-11-10T13:21:52.153Z,19.97
2018-11-10T13:24:20.473Z,21.30
2018-11-10T13:26:48.839Z,20.40
2018-11-10T13:29:17.181Z,21.47
2018-11-10T13:31:45.665Z,21.27
2018-11-10T13:34:13.901Z,21.90
2018-11-10T13:36:42.293Z,20.37
2018-11-10T13:39:10.925Z,22.03
2018-11-10T13:41:39.475Z,21.97
2018-11-10T13:44:07.767Z,22.67
2018-11-10T13:46:36.115Z,21.67
2018-11-10T13:49:04.487Z,22.03
2018-11-10T13:51:33.000Z,22.13
2018-11-10T13:54:01.148Z,21.83
2018-11-10T13:56:29.485Z,22.87
2018-11-10T13:58:57.780Z,23.33
2018-11-10T14:01:26.089Z,22.53
2018-11-10T14:03:54.424Z,20.93
2018-11-10T14:06:22.812Z,23.83
2018-11-10T14:08:51.387Z,22.10
2018-11-10T14:11:19.726Z,21.40
2018-11-10T14:13:48.007Z,22.23
2018-11-10T14:16:16.317Z,22.37
2018-11-10T14:18:44.871Z,23.27
2018-11-10T14:21:13.229Z,22.93
2018-11-10T14:23:41.942Z,21.97
2018-11-10T14:26:10.282Z,23.03
2018-11-10T14:28:38.752Z,22.17
2018-11-10T14:31:07.399Z,21.83
2018-11-10T14:33:35.763Z,23.10
2018-11-10T14:36:04.084Z,23.50
2018-11-10T14:38:32.410Z,21.37
2018-11-10T14:41:00.688Z,22.77
2018-11-10T14:43:29.081Z,21.77
2018-11-10T14:45:57.451Z,21.63
2018-11-10T14:48:25.470Z,21.37
2018-11-10T14:50:53.815Z,22.70
2018-11-10T14:53:22.153Z,24.13
2018-11-10T14:55:50.485Z,22.50
2018-11-10T14:58:18.928Z,22.17
2018-11-10T15:00:47.224Z,21.20
2018-11-10T15:03:15.554Z,21.63
2018-11-10T15:05:43.877Z,22.43
2018-11-10T15:08:12.204Z,22.97
2018-11-10T15:10:40.599Z,23.10
2018-11-10T15:13:08.988Z,23.47
2018-11-10T15:15:37.381Z,22.83
2018-11-10T15:18:05.782Z,22.87
2018-11-10T15:20:34.046Z,23.13
2018-11-10T15:23:02.395Z,23.53
2018-11-10T15:25:30.768Z,23.60
2018-11-10T15:27:59.165Z,23.03
2018-11-10T15:30:27.478Z,23.13
2018-11-10T15:32:55.834Z,21.60
2018-11-10T15:35:24.193Z,20.87
2018-11-10T15:37:53.068Z,20.83
2018-11-10T15:40:22.261Z,20.73
2018-11-10T15:42:50.663Z,21.80
2018-11-10T15:45:19.745Z,20.30
2018-11-10T15:47:48.082Z,23.33
2018-11-10T15:50:17.241Z,22.27
2018-11-10T15:52:45.742Z,21.90
2018-11-10T15:55:14.816Z,23.43
2018-11-10T15:57:43.375Z,23.33
2018-11-10T16:00:15.345Z,27.13
2018-11-10T16:02:43.668Z,21.60
2018-11-10T16:05:12.627Z,21.77
2018-11-10T16:07:40.954Z,22.43
2018-11-10T16:10:09.370Z,21.17
2018-11-10T16:12:37.958Z,21.37
2018-11-10T16:15:08.172Z,21.70
2018-11-10T16:17:36.517Z,21.40
2018-11-10T16:20:06.307Z,22.43
2018-11-10T16:22:34.627Z,22.90
2018-11-10T16:25:02.987Z,22.23
2018-11-10T16:27:31.347Z,23.07
2018-11-10T16:29:59.773Z,22.57
2018-11-10T16:32:28.126Z,24.03
2018-11-10T16:34:56.659Z,22.60
2018-11-10T16:37:25.095Z,23.37
2018-11-10T16:39:53.452Z,22.47
2018-11-10T16:42:21.859Z,22.20
2018-11-10T16:44:50.186Z,24.47
2018-11-10T16:47:18.517Z,22.20
2018-11-10T16:49:46.843Z,21.87
2018-11-10T16:52:15.230Z,20.90
2018-11-10T16:54:43.615Z,21.33
2018-11-10T16:57:11.919Z,22.33
2018-11-10T16:59:40.303Z,21.97
2018-11-10T17:02:08.670Z,22.00
2018-11-10T17:04:36.986Z,22.27
2018-11-10T17:07:05.527Z,22.67
2018-11-10T17:09:33.874Z,23.23
2018-11-10T17:12:02.179Z,21.90
2018-11-10T17:14:30.519Z,22.20
2018-11-10T17:16:58.822Z,23.13
2018-11-10T17:19:27.155Z,24.77
2018-11-10T17:21:55.546Z,21.50
2018-11-10T17:24:23.773Z,22.20
2018-11-10T17:26:52.120Z,21.63
2018-11-10T17:29:20.430Z,21.63
2018-11-10T17:31:48.776Z,23.03
2018-11-10T17:34:17.107Z,21.30
2018-11-10T17:36:45.400Z,22.13
2018-11-10T17:39:13.979Z,21.10
2018-11-10T17:41:42.083Z,21.23
2018-11-10T17:44:10.445Z,21.27
2018-11-10T17:46:38.768Z,20.40
2018-11-10T17:49:07.072Z,21.47
2018-11-10T17:51:35.398Z,20.97
2018-11-10T17:54:03.971Z,22.00
2018-11-10T17:56:32.347Z,21.23
2018-11-10T17:59:00.658Z,21.20
2018-11-10T18:01:29.005Z,20.90
2018-11-10T18:03:57.387Z,21.70
2018-11-10T18:06:26.561Z,22.00
2018-11-10T18:08:54.949Z,21.90
2018-11-10T18:11:23.253Z,23.10
2018-11-10T18:13:51.550Z,21.83
2018-11-10T18:16:19.970Z,23.63
2018-11-10T18:18:48.277Z,22.93
2018-11-10T18:21:16.636Z,22.77
2018-11-10T18:23:45.008Z,21.30
2018-11-10T18:26:13.361Z,22.83
2018-11-10T18:28:41.702Z,23.17
2018-11-10T18:31:10.049Z,23.47
2018-11-10T18:33:38.354Z,22.13
2018-11-10T18:36:06.718Z,22.90
2018-11-10T18:38:35.020Z,23.17
2018-11-10T18:41:03.327Z,22.90
2018-11-10T18:43:31.663Z,22.87
2018-11-10T18:46:00.026Z,23.87
2018-11-10T18:48:28.326Z,23.37
2018-11-10T18:50:56.726Z,22.70
2018-11-10T18:53:25.051Z,24.33
2018-11-10T18:55:53.493Z,22.27
2018-11-10T18:58:21.850Z,23.00
2018-11-10T19:00:50.333Z,23.60
2018-11-10T19:03:18.913Z,24.63
2018-11-10T19:05:47.239Z,26.20
2018-11-10T19:08:15.612Z,24.13
2018-11-10T19:10:44.066Z,23.00
2018-11-10T19:13:12.446Z,24.70
2018-11-10T19:15:41.538Z,23.43
2018-11-10T19:18:10.514Z,24.27
2018-11-10T19:20:38.920Z,24.37
2018-11-10T19:23:07.381Z,24.53
2018-11-10T19:25:35.740Z,25.63
2018-11-10T19:28:04.051Z,24.27
2018-11-10T19:30:32.373Z,22.97
2018-11-10T19:33:00.815Z,25.30
2018-11-10T19:35:29.243Z,25.67
2018-11-10T19:37:57.577Z,24.93
2018-11-10T19:40:25.940Z,24.87
2018-11-10T19:42:54.326Z,23.37
2018-11-10T19:45:22.677Z,23.83
2018-11-10T19:47:51.054Z,24.30
2018-11-10T19:50:19.558Z,25.10
2018-11-10T19:52:47.759Z,25.67
2018-11-10T19:55:17.204Z,25.43
2018-11-10T19:57:45.603Z,24.63
2018-11-10T20:00:16.636Z,24.80
2018-11-10T20:02:45.036Z,24.97
2018-11-10T20:05:13.396Z,24.50
2018-11-10T20:07:41.832Z,24.40
2018-11-10T20:10:11.331Z,25.43
2018-11-10T20:12:41.279Z,25.43
2018-11-10T20:15:11.140Z,32.57
2018-11-10T20:17:40.330Z,26.90
2018-11-10T20:20:09.755Z,26.10
2018-11-10T20:22:38.181Z,27.80
2018-11-10T20:25:08.233Z,25.53
2018-11-10T20:27:36.648Z,26.37
2018-11-10T20:30:06.913Z,25.83
2018-11-10T20:32:35.395Z,25.03
2018-11-10T20:35:03.653Z,26.37
2018-11-10T20:37:31.974Z,26.37
2018-11-10T20:40:00.338Z,26.43
2018-11-10T20:42:28.693Z,27.13
2018-11-10T20:44:57.111Z,27.90
2018-11-10T20:47:25.470Z,26.50
2018-11-10T20:49:53.849Z,25.57
2018-11-10T20:52:22.202Z,27.47
2018-11-10T20:54:50.555Z,26.63
2018-11-10T20:57:18.889Z,26.33
2018-11-10T20:59:47.242Z,26.17
2018-11-10T21:02:15.567Z,25.93
2018-11-10T21:04:43.885Z,27.03
2018-11-10T21:07:12.200Z,26.77
2018-11-10T21:09:40.636Z,25.63
2018-11-10T21:12:08.985Z,27.10
2018-11-10T21:14:37.357Z,26.57
2018-11-10T21:17:05.919Z,28.10
2018-11-10T21:19:34.326Z,28.43
2018-11-10T21:22:02.756Z,27.97
2018-11-10T21:24:31.170Z,27.70
2018-11-10T21:26:59.515Z,28.00
2018-11-10T21:29:28.062Z,25.57
2018-11-10T21:31:56.388Z,28.70
2018-11-10T21:34:24.823Z,26.90
2018-11-10T21:36:53.239Z,26.37
2018-11-10T21:39:21.559Z,27.73
2018-11-10T21:41:49.957Z,27.77
2018-11-10T21:44:18.395Z,28.40
2018-11-10T21:46:46.720Z,26.53
2018-11-10T21:49:15.140Z,27.53
2018-11-10T21:51:44.342Z,28.53
2018-11-10T21:54:12.742Z,30.23
2018-11-10T21:56:41.527Z,28.80
2018-11-10T21:59:16.611Z,30.40
2018-11-10T22:01:45.002Z,29.23
2018-11-10T22:04:13.330Z,33.33
2018-11-10T22:06:48.383Z,33.43
2018-11-10T22:09:16.860Z,28.67
2018-11-10T22:11:45.176Z,28.70
2018-11-10T22:14:13.536Z,28.40
2018-11-10T22:16:41.867Z,29.33
2018-11-10T22:19:10.277Z,28.60
2018-11-10T22:21:38.772Z,29.30
2018-11-10T22:24:07.159Z,28.10
2018-11-10T22:26:35.482Z,28.77
2018-11-10T22:29:03.881Z,27.27
2018-11-10T22:31:32.461Z,28.07
2018-11-10T22:34:00.857Z,28.37
2018-11-10T22:36:29.616Z,29.33
2018-11-10T22:38:58.007Z,28.97
2018-11-10T22:41:27.301Z,28.20
2018-11-10T22:43:55.806Z,28.03
2018-11-10T22:46:24.251Z,28.87
2018-11-10T22:48:52.621Z,29.23
2018-11-10T22:51:21.197Z,29.63
2018-11-10T22:53:49.709Z,28.67
2018-11-10T22:56:18.103Z,29.20
2018-11-10T22:58:46.486Z,30.83
2018-11-10T23:01:15.120Z,29.13
2018-11-10T23:03:43.600Z,31.90
2018-11-10T23:06:11.937Z,32.53
2018-11-10T23:08:40.343Z,29.37
2018-11-10T23:11:08.747Z,30.87
2018-11-10T23:13:37.266Z,30.33
2018-11-10T23:16:05.955Z,30.43
2018-11-10T23:18:35.295Z,31.07
2018-11-10T23:21:03.796Z,29.53
2018-11-10T23:23:32.330Z,32.17
2018-11-10T23:26:00.817Z,30.17
2018-11-10T23:28:29.235Z,30.53
2018-11-10T23:30:57.647Z,31.13
2018-11-10T23:33:25.979Z,30.83
2018-11-10T23:35:54.351Z,31.10
2018-11-10T23:38:23.059Z,31.00
2018-11-10T23:40:51.441Z,30.97
2018-11-10T23:43:19.924Z,29.37
2018-11-10T23:45:48.320Z,29.83
2018-11-10T23:48:16.705Z,31.60
2018-11-10T23:50:45.161Z,31.97
2018-11-10T23:53:14.383Z,30.33
2018-11-10T23:55:43.344Z,30.77
2018-11-10T23:58:11.735Z,28.97
